Time;durP1;ratioP1;P1;durP2;ratioP2;P2;SDS_P1;SDS_P2;PMS_P1;PMS_P2;Temp;Humidity;BMP_temperature;BMP_pressure;BME280_temperature;BME280_humidity;BME280_pressure;Samples;Min_cycle;Max_cycle;Signal;HPM_P1;HPM_P2
2023/04/10 00:00:02;;;;;;;124.13;77.15;;;;;;;7.95;100.00;100546.53;5034710;28;20035;-75
2023/04/10 00:02:28;;;;;;;127.25;82.00;;;;;;;7.95;100.00;100538.75;5034693;28;20107;-75
2023/04/10 00:04:53;;;;;;;138.55;83.82;;;;;;;7.49;100.00;100466.28;5034646;28;20053;-75
2023/04/10 00:07:18;;;;;;;142.98;81.63;;;;;;;7.71;100.00;100511.63;5034475;28;20456;-75
2023/04/10 00:09:44;;;;;;;133.43;75.07;;;;;;;7.64;100.00;100502.25;5033187;28;20083;-75
2023/04/10 00:12:10;;;;;;;140.35;75.82;;;;;;;7.69;100.00;100507.34;5034585;28;20428;-75
2023/04/10 00:14:35;;;;;;;150.65;85.20;;;;;;;7.81;100.00;100533.03;5034330;28;20432;-75
2023/04/10 00:17:01;;;;;;;168.63;89.57;;;;;;;7.80;100.00;100522.69;5034461;28;20021;-75
2023/04/10 00:19:26;;;;;;;149.57;80.40;;;;;;;7.62;100.00;100485.00;5034256;28;20029;-75
2023/04/10 00:21:51;;;;;;;166.82;85.30;;;;;;;7.79;100.00;100518.38;5034033;28;20029;-75
2023/04/10 00:24:16;;;;;;;158.77;85.82;;;;;;;7.84;100.00;100526.91;5034205;28;20038;-75
2023/04/10 00:26:42;;;;;;;152.50;84.00;;;;;;;7.84;100.00;100526.91;5034155;28;20021;-75
2023/04/10 00:29:07;;;;;;;148.13;80.60;;;;;;;7.69;100.00;100500.41;5034066;28;20575;-75
2023/04/10 00:31:32;;;;;;;176.85;89.28;;;;;;;7.56;100.00;100478.22;5034237;28;20097;-75
2023/04/10 00:33:58;;;;;;;161.90;82.60;;;;;;;7.66;100.00;100497.03;5034044;28;20036;-75
2023/04/10 00:36:23;;;;;;;150.98;82.13;;;;;;;7.77;100.00;100505.44;5034057;28;20030;-75
2023/04/10 00:38:48;;;;;;;151.63;82.20;;;;;;;7.77;100.00;100514.97;5033574;28;20116;-75
2023/04/10 00:41:15;;;;;;;152.55;84.18;;;;;;;7.79;100.00;100518.38;5034127;28;20036;-75
2023/04/10 00:43:41;;;;;;;143.70;79.43;;;;;;;7.62;100.00;100487.59;5033777;28;20524;-75
2023/04/10 00:46:06;;;;;;;151.45;81.13;;;;;;;7.63;100.00;100500.56;5033978;28;20125;-75
2023/04/10 00:48:32;;;;;;;142.73;77.68;;;;;;;7.78;100.00;100516.66;5033820;28;20397;-75
2023/04/10 00:50:59;;;;;;;154.20;84.50;;;;;;;7.63;100.00;100497.13;5033683;28;20029;-75
2023/04/10 00:53:24;;;;;;;156.55;82.72;;;;;;;7.74;100.00;100523.66;5033973;28;20456;-75
2023/04/10 00:55:49;;;;;;;148.43;84.40;;;;;;;7.62;100.00;100498.81;5033164;28;20053;-75
2023/04/10 00:58:15;;;;;;;154.15;84.88;;;;;;;7.64;100.00;100507.44;5033550;28;20021;-75
2023/04/10 01:00:40;;;;;;;146.35;79.45;;;;;;;7.79;100.00;100531.31;5033471;28;20400;-75
2023/04/10 01:03:11;;;;;;;162.88;89.60;;;;;;;7.67;100.00;100509.13;5033622;28;20041;-75
2023/04/10 01:05:50;;;;;;;153.30;83.70;;;;;;;7.68;100.00;100509.09;5033201;28;20036;-75
2023/04/10 01:08:49;;;;;;;159.57;85.13;;;;;;;7.82;100.00;100529.53;5033621;28;20426;-75
2023/04/10 01:11:57;;;;;;;159.23;85.43;;;;;;;7.66;100.00;100505.66;5033404;28;20025;-75
2023/04/10 01:14:48;;;;;;;162.00;89.82;;;;;;;7.83;100.00;100527.78;5033556;28;20025;-75
2023/04/10 01:17:35;;;;;;;159.50;91.35;;;;;;;7.81;100.00;100526.97;5033382;28;20026;-75
2023/04/10 01:20:06;;;;;;;149.25;86.72;;;;;;;7.65;100.00;100501.34;5032957;28;20036;-75
2023/04/10 01:22:40;;;;;;;158.40;92.28;;;;;;;7.68;100.00;100510.81;5033008;28;20030;-75
2023/04/10 01:25:27;;;;;;;190.80;107.40;;;;;;;7.78;100.00;100521.84;5033251;28;20117;-75
2023/04/10 01:28:17;;;;;;;184.68;103.78;;;;;;;7.74;100.00;100524.50;5032768;28;20058;-75
2023/04/10 01:30:45;;;;;;;166.80;95.10;;;;;;;7.71;100.00;100521.09;5032717;28;20509;-75
2023/04/10 01:33:13;;;;;;;163.35;91.90;;;;;;;7.67;100.00;100517.75;5033001;28;20473;-75
2023/04/10 01:35:42;;;;;;;161.00;92.75;;;;;;;7.69;100.00;100507.34;5032782;28;20048;-75
2023/04/10 01:38:09;;;;;;;147.38;86.43;;;;;;;7.62;100.00;100490.19;5032849;28;20068;-75
2023/04/10 01:40:38;;;;;;;148.98;87.65;;;;;;;7.54;100.00;100468.75;5032979;28;20049;-75
2023/04/10 01:43:06;;;;;;;147.48;86.30;;;;;;;7.67;100.00;100494.41;5032820;28;20374;-75
2023/04/10 01:45:32;;;;;;;148.55;86.88;;;;;;;7.69;100.00;100496.97;5032730;28;20049;-75
2023/04/10 01:47:58;;;;;;;134.20;82.80;;;;;;;7.80;100.00;100518.34;5032629;28;20512;-75
2023/04/10 01:50:27;;;;;;;141.38;83.13;;;;;;;7.53;100.00;100469.66;5032746;28;20025;-75
2023/04/10 01:52:53;;;;;;;141.15;84.18;;;;;;;7.57;100.00;100479.06;5032380;28;20026;-75
2023/04/10 01:55:20;;;;;;;144.68;86.03;;;;;;;7.52;100.00;100486.94;5032564;28;20055;-75
2023/04/10 01:57:47;;;;;;;152.10;90.85;;;;;;;7.62;100.00;100511.78;5032235;28;20083;-75
2023/04/10 02:00:15;;;;;;;145.93;85.93;;;;;;;7.41;100.00;100489.75;5032527;28;20018;-75
2023/04/10 02:02:41;;;;;;;145.02;84.88;;;;;;;7.54;100.00;100520.59;5032321;28;20071;-75
2023/04/10 02:05:09;;;;;;;180.18;93.38;;;;;;;7.44;100.00;100518.22;5032440;28;20029;-75
2023/04/10 02:07:59;;;;;;;220.55;105.25;;;;;;;7.37;100.00;100519.19;5051877;28;20029;-75
2023/04/10 02:10:47;;;;;;;165.30;89.75;;;;;;;7.35;100.00;100522.72;5052155;28;20087;-75
2023/04/10 02:13:14;;;;;;;135.93;82.57;;;;;;;7.32;100.00;100527.97;5052319;28;20032;-75
2023/04/10 02:15:42;;;;;;;130.65;79.63;;;;;;;7.28;100.00;100526.31;5051970;28;20021;-75
2023/04/10 02:18:09;;;;;;;136.20;83.13;;;;;;;7.12;100.00;100499.81;5051946;28;20032;-75
2023/04/10 02:20:34;;;;;;;129.15;77.15;;;;;;;7.23;100.00;100522.06;5051972;28;20366;-75
2023/04/10 02:23:02;;;;;;;132.27;76.90;;;;;;;7.21;100.00;100529.03;5051979;28;20044;-75
2023/04/10 02:25:34;;;;;;;137.77;82.28;;;;;;;7.05;100.00;100500.84;5052107;28;20025;-75
2023/04/10 02:28:06;;;;;;;113.80;72.07;;;;;;;7.12;100.00;100518.84;5051455;28;20067;-75
2023/04/10 02:30:32;;;;;;;108.53;68.75;;;;;;;7.05;100.00;100500.84;5052010;28;20036;-74
2023/04/10 02:32:58;;;;;;;120.03;73.53;;;;;;;7.01;100.00;100505.22;5050253;28;20063;-75
2023/04/10 02:35:25;;;;;;;102.85;66.40;;;;;;;7.05;100.00;100529.34;5051778;28;20163;-75
2023/04/10 02:37:50;;;;;;;102.28;65.15;;;;;;;6.75;100.00;100480.66;5050735;28;20419;-75
2023/04/10 02:40:15;;;;;;;88.07;58.10;;;;;;;6.86;100.00;100497.72;5051826;28;20206;-75
2023/04/10 02:42:41;;;;;;;90.70;59.60;;;;;;;6.96;100.00;100528.63;5051735;28;20029;-75
2023/04/10 02:45:07;;;;;;;90.22;59.08;;;;;;;6.85;100.00;100516.72;5051740;28;20395;-75
2023/04/10 02:47:33;;;;;;;91.90;59.65;;;;;;;6.87;100.00;100527.91;5051685;28;20021;-74
2023/04/10 02:49:58;;;;;;;101.32;63.28;;;;;;;6.78;100.00;100523.75;5051329;28;20031;-75
2023/04/10 02:52:23;;;;;;;86.85;56.45;;;;;;;6.70;100.00;100523.91;5051810;28;20035;-75
2023/04/10 02:54:49;;;;;;;80.60;53.78;;;;;;;6.58;100.00;100518.06;5051791;28;20035;-75
2023/04/10 02:57:15;;;;;;;74.43;50.45;;;;;;;6.53;100.00;100530.19;5051776;28;20091;-75
2023/04/10 02:59:40;;;;;;;72.07;49.70;;;;;;;6.19;100.00;100477.28;5051698;28;20025;-75
2023/04/10 03:02:06;;;;;;;74.53;50.10;;;;;;;6.32;100.00;100505.53;5051494;28;20094;-75
2023/04/10 03:04:31;;;;;;;85.40;55.53;;;;;;;6.41;100.00;100531.28;5051473;28;20469;-75
2023/04/10 03:06:56;;;;;;;99.18;59.78;;;;;;;6.31;100.00;100506.41;5051441;28;20021;-75
2023/04/10 03:09:22;;;;;;;71.28;48.47;;;;;;;6.37;100.00;100527.03;5051656;28;20032;-75
2023/04/10 03:11:47;;;;;;;75.90;49.20;;;;;;;6.25;100.00;100503.03;5051352;28;20040;-75
2023/04/10 03:14:12;;;;;;;75.90;49.85;;;;;;;6.21;100.00;100503.13;5051499;28;20030;-75
2023/04/10 03:16:38;;;;;;;67.40;47.08;;;;;;;6.34;100.00;100533.09;5051717;28;20065;-74
2023/04/10 03:19:03;;;;;;;79.15;50.50;;;;;;;6.41;100.00;100531.28;5051183;28;20032;-75
2023/04/10 03:21:29;;;;;;;70.28;46.65;;;;;;;6.32;100.00;100509.00;5055572;28;20432;-75
2023/04/10 03:23:54;;;;;;;80.53;50.20;;;;;;;6.46;100.00;100519.13;5055228;28;20024;-75
2023/04/10 03:26:20;;;;;;;69.30;45.88;;;;;;;6.36;100.00;100502.00;5055333;28;20443;-75
2023/04/10 03:28:45;;;;;;;71.82;46.67;;;;;;;6.41;100.00;100508.00;5054983;28;20059;-75
2023/04/10 03:31:11;;;;;;;76.70;48.20;;;;;;;6.56;100.00;100527.56;5055147;28;20402;-75
2023/04/10 03:33:36;;;;;;;74.85;48.83;;;;;;;6.33;100.00;100484.81;5055009;28;20112;-75
2023/04/10 03:36:03;;;;;;;68.32;46.33;;;;;;;6.53;100.00;100519.84;5054836;28;20025;-75
2023/04/10 03:38:28;;;;;;;72.93;47.95;;;;;;;6.49;100.00;100507.00;5055099;28;20085;-75
2023/04/10 03:40:53;;;;;;;84.38;54.30;;;;;;;6.58;100.00;100531.84;5055141;28;20104;-75
2023/04/10 03:43:19;;;;;;;77.85;51.88;;;;;;;6.58;100.00;100534.44;5055043;28;20025;-75
2023/04/10 03:45:44;;;;;;;77.50;52.25;;;;;;;6.56;100.00;100523.25;5054931;28;20026;-75
2023/04/10 03:48:10;;;;;;;78.55;52.83;;;;;;;6.52;100.00;100505.22;5054603;28;20128;-75
2023/04/10 03:50:35;;;;;;;85.70;57.63;;;;;;;6.59;100.00;100523.22;5055044;28;20353;-75
2023/04/10 03:53:00;;;;;;;85.95;57.80;;;;;;;6.69;100.00;100522.16;5054720;28;20029;-75
2023/04/10 03:55:26;;;;;;;77.28;52.38;;;;;;;6.64;100.00;100510.19;5054903;28;20055;-75
2023/04/10 03:57:51;;;;;;;81.03;53.17;;;;;;;6.81;100.00;100531.47;5054566;28;20032;-75
2023/04/10 04:00:17;;;;;;;77.63;50.33;;;;;;;6.61;100.00;100485.19;5054610;28;20484;-74
2023/04/10 04:02:43;;;;;;;66.50;47.38;;;;;;;6.88;100.00;100522.72;5054555;28;20397;-75
2023/04/10 04:05:08;;;;;;;73.53;48.47;;;;;;;6.82;100.00;100502.09;5054508;28;20515;-75
2023/04/10 04:07:33;;;;;;;75.60;48.97;;;;;;;6.88;100.00;100514.94;5054578;28;20439;-75
2023/04/10 04:09:59;;;;;;;71.93;49.30;;;;;;;6.82;100.00;100494.31;5054508;28;20064;-76
2023/04/10 04:12:25;;;;;;;77.63;50.10;;;;;;;6.75;100.00;100479.81;5054667;28;20033;-75
2023/04/10 04:14:50;;;;;;;77.25;51.65;;;;;;;7.04;100.00;100523.31;5054467;28;20032;-75
2023/04/10 04:17:16;;;;;;;72.00;47.28;;;;;;;7.09;100.00;100518.03;5054306;28;20043;-75
2023/04/10 04:19:41;;;;;;;73.40;49.47;;;;;;;6.96;100.00;100499.28;5054133;28;20092;-75
2023/04/10 04:22:06;;;;;;;71.43;47.92;;;;;;;7.14;100.00;100524.84;5053912;28;20045;-74
2023/04/10 04:24:32;;;;;;;70.85;48.67;;;;;;;7.07;100.00;100510.28;5054234;28;20021;-75
2023/04/10 04:26:57;;;;;;;67.22;44.67;;;;;;;7.13;100.00;100517.09;5053982;28;20029;-75
2023/04/10 04:29:22;;;;;;;73.63;47.90;;;;;;;7.27;100.00;100527.19;5053947;28;20051;-75
2023/04/10 04:31:49;;;;;;;68.32;46.92;;;;;;;7.30;100.00;100529.75;5052606;28;20400;-75
2023/04/10 04:34:15;;;;;;;85.20;50.50;;;;;;;7.15;100.00;100504.97;5053957;28;20056;-75
2023/04/10 04:36:40;;;;;;;75.47;48.88;;;;;;;7.23;100.00;100519.47;5054146;28;20056;-75
2023/04/10 04:39:06;;;;;;;80.72;50.42;;;;;;;7.39;100.00;100547.69;5053618;28;20040;-75
2023/04/10 04:41:32;;;;;;;94.80;56.58;;;;;;;7.43;100.00;100549.34;5053953;28;20035;-75
2023/04/10 04:43:58;;;;;;;90.13;53.42;;;;;;;7.20;100.00;100495.34;5053662;28;20083;-75
2023/04/10 04:46:23;;;;;;;94.03;55.70;;;;;;;7.36;100.00;100517.50;5053712;28;20107;-75
2023/04/10 04:48:48;;;;;;;87.50;54.83;;;;;;;7.55;100.00;100540.47;5053679;28;20052;-75
2023/04/10 04:51:14;;;;;;;81.93;50.63;;;;;;;7.60;100.00;100546.44;5053577;28;20036;-75
2023/04/10 04:53:39;;;;;;;72.93;48.30;;;;;;;7.47;100.00;100512.97;5053821;28;20028;-75
2023/04/10 04:56:05;;;;;;;72.55;47.72;;;;;;;7.51;100.00;100518.94;5053591;28;20440;-75
2023/04/10 04:58:30;;;;;;;78.45;51.55;;;;;;;7.64;100.00;100543.75;5053485;28;20604;-75
2023/04/10 05:00:55;;;;;;;100.78;59.33;;;;;;;7.63;100.00;100552.41;5053345;28;20048;-75
2023/04/10 05:03:21;;;;;;;77.32;54.35;;;;;;;7.58;100.00;100555.97;5053435;28;20111;-75
2023/04/10 05:05:46;;;;;;;84.85;56.05;;;;;;;7.47;100.00;100538.03;5053646;28;20473;-75
2023/04/10 05:08:11;;;;;;;116.38;57.10;;;;;;;7.30;100.00;100520.22;5053293;28;20017;-75
2023/04/10 05:10:37;;;;;;;109.05;52.25;;;;;;;7.57;100.00;100569.81;5053290;28;20552;-75
2023/04/10 05:13:02;;;;;;;70.80;51.08;;;;;;;7.58;100.00;100563.72;5053102;28;20055;-75
2023/04/10 05:15:27;;;;;;;119.45;80.38;;;;;;;7.45;100.00;100545.81;5053224;28;20433;-75
2023/04/10 05:17:53;;;;;;;128.98;87.15;;;;;;;7.65;100.00;100575.69;5053005;28;20544;-75
2023/04/10 05:20:20;;;;;;;167.00;108.68;;;;;;;7.71;100.00;100580.75;5053353;28;20066;-75
2023/04/10 05:22:45;;;;;;;140.30;85.30;;;;;;;7.74;100.00;100578.09;5053308;28;20435;-75
2023/04/10 05:25:11;;;;;;;94.35;61.83;;;;;;;7.84;100.00;100581.38;5053012;28;20021;-75
2023/04/10 05:27:36;;;;;;;93.03;57.15;;;;;;;7.79;100.00;100565.03;5052996;28;20036;-75
2023/04/10 05:30:02;;;;;;;92.15;56.13;;;;;;;7.80;100.00;100559.84;5052857;28;20028;-75
2023/04/10 05:32:28;;;;;;;85.10;57.00;;;;;;;7.96;100.00;100583.69;5052801;28;20481;-75
2023/04/10 05:34:53;;;;;;;87.63;55.03;;;;;;;7.90;100.00;100563.94;5052838;28;20032;-75
2023/04/10 05:37:18;;;;;;;90.45;55.60;;;;;;;8.01;100.00;100581.88;5052689;28;20112;-75
2023/04/10 05:39:44;;;;;;;84.55;55.42;;;;;;;8.11;100.00;100598.09;5053013;28;20100;-75
2023/04/10 05:42:09;;;;;;;83.43;54.22;;;;;;;8.09;100.00;100595.56;5052467;28;20025;-75
2023/04/10 05:44:34;;;;;;;85.78;54.00;;;;;;;8.06;100.00;100582.63;5052518;28;20036;-75
2023/04/10 05:47:00;;;;;;;85.63;54.35;;;;;;;8.28;100.00;100602.94;5052412;28;20025;-75
2023/04/10 05:49:25;;;;;;;86.10;54.17;;;;;;;8.31;100.00;100603.72;5052861;28;20051;-75
2023/04/10 05:51:52;;;;;;;96.05;59.33;;;;;;;8.33;100.00;100608.88;5052813;28;20060;-75
2023/04/10 05:54:17;;;;;;;85.53;54.58;;;;;;;8.05;100.00;100564.50;5052487;28;20036;-75
2023/04/10 05:56:42;;;;;;;86.40;57.75;;;;;;;8.18;100.00;100590.16;5052618;28;20025;-75
2023/04/10 05:59:08;;;;;;;80.03;54.83;;;;;;;8.24;100.00;100609.91;5052280;28;20025;-75
2023/04/10 06:01:33;;;;;;;81.43;54.75;;;;;;;8.25;100.00;100604.69;5052480;28;20039;-75
2023/04/10 06:03:58;;;;;;;76.82;52.83;;;;;;;8.13;100.00;100591.13;5052434;28;20036;-75
2023/04/10 06:06:25;;;;;;;76.35;52.80;;;;;;;7.92;100.00;100577.75;5052603;28;20063;-75
2023/04/10 06:08:50;;;;;;;80.35;55.35;;;;;;;8.07;100.00;100601.66;5052302;28;20494;-75
2023/04/10 06:11:16;;;;;;;72.75;51.35;;;;;;;7.92;100.00;100587.25;5052425;28;20112;-75
2023/04/10 06:13:41;;;;;;;78.30;52.13;;;;;;;7.92;100.00;100590.72;5052349;28;20082;-75
2023/04/10 06:16:07;;;;;;;74.78;51.20;;;;;;;7.95;100.00;100613.97;5051921;28;20387;-75
2023/04/10 06:18:32;;;;;;;73.03;49.50;;;;;;;7.97;100.00;100621.75;5052354;28;20025;-74
2023/04/10 06:21:00;;;;;;;75.72;53.25;;;;;;;7.90;100.00;100625.34;5052156;28;20100;-75
2023/04/10 06:23:27;;;;;;;77.32;53.72;;;;;;;7.91;100.00;100622.72;5052166;28;20497;-75
2023/04/10 06:25:55;;;;;;;78.05;53.35;;;;;;;7.86;100.00;100608.97;5052197;28;20055;-75
2023/04/10 06:28:20;;;;;;;74.68;50.97;;;;;;;7.83;100.00;100611.63;5052020;28;20041;-75
2023/04/10 06:30:46;;;;;;;74.40;48.10;;;;;;;7.71;100.00;100592.00;5052008;28;20032;-75
2023/04/10 06:33:11;;;;;;;72.13;49.47;;;;;;;7.78;100.00;100595.31;5051891;28;20025;-75
2023/04/10 06:35:37;;;;;;;81.30;53.53;;;;;;;7.86;100.00;100595.16;5051980;28;20102;-75
2023/04/10 06:38:03;;;;;;;74.05;51.08;;;;;;;7.91;100.00;100588.13;5051916;28;20025;-75
2023/04/10 06:40:29;;;;;;;76.85;51.65;;;;;;;7.89;100.00;100566.56;5050701;28;20384;-75
2023/04/10 06:42:55;;;;;;;71.40;49.40;;;;;;;8.20;100.00;100600.50;5051911;28;20520;-75
2023/04/10 06:45:20;;;;;;;78.55;51.63;;;;;;;8.18;100.00;100595.34;5051544;28;20104;-75
2023/04/10 06:47:46;;;;;;;83.18;53.13;;;;;;;8.27;100.00;100609.00;5052032;28;20051;-75
2023/04/10 06:50:11;;;;;;;88.63;54.58;;;;;;;8.24;100.00;100609.91;5051583;28;20381;-75
2023/04/10 06:52:36;;;;;;;86.60;55.45;;;;;;;8.21;100.00;100604.78;5051940;28;20037;-75
2023/04/10 06:55:02;;;;;;;80.90;52.97;;;;;;;8.25;100.00;100588.25;5051087;28;20083;-75
2023/04/10 06:57:28;;;;;;;77.82;50.10;;;;;;;8.45;100.00;100622.47;5051753;28;20634;-75
2023/04/10 06:59:53;;;;;;;74.85;49.58;;;;;;;8.37;100.00;100593.22;5051586;28;20025;-74
2023/04/10 07:02:19;;;;;;;74.80;48.65;;;;;;;8.46;100.00;100592.16;5051616;28;20033;-75
2023/04/10 07:04:44;;;;;;;78.80;49.95;;;;;;;8.62;100.00;100616.88;5051867;28;20021;-75
2023/04/10 07:07:12;;;;;;;82.88;48.28;;;;;;;8.63;100.00;100613.38;5051589;28;20071;-75
2023/04/10 07:09:38;;;;;;;131.55;84.85;;;;;;;8.67;100.00;100625.41;5051730;28;20039;-75
2023/04/10 07:12:03;;;;;;;91.72;61.88;;;;;;;8.53;100.00;100600.66;5049956;28;20033;-75
2023/04/10 07:14:28;;;;;;;80.75;53.45;;;;;;;8.76;100.00;100626.94;5031521;28;20022;-77
2023/04/10 07:16:54;;;;;;;81.75;60.38;;;;;;;8.69;100.00;100602.88;5031821;28;20531;-75
2023/04/10 07:19:19;;;;;;;78.35;53.28;;;;;;;8.65;100.00;100592.59;5031494;28;20033;-75
2023/04/10 07:21:48;;;;;;;91.63;53.03;;;;;;;8.89;100.00;100632.69;5031757;28;20034;-75
2023/04/10 07:24:15;;;;;;;82.13;52.20;;;;;;;8.86;100.00;100625.00;5031379;28;20100;-75
2023/04/10 07:26:40;;;;;;;79.35;52.45;;;;;;;8.87;100.00;100624.97;5031540;28;20384;-76
2023/04/10 07:29:05;;;;;;;83.13;52.30;;;;;;;8.92;100.00;100619.66;5031337;28;20049;-76
2023/04/10 07:31:31;;;;;;;81.10;51.78;;;;;;;8.83;100.00;100602.53;5031462;28;20029;-75
2023/04/10 07:33:56;;;;;;;76.80;49.10;;;;;;;8.92;100.00;100604.06;5031565;28;20033;-76
2023/04/10 07:36:21;;;;;;;80.13;50.67;;;;;;;9.06;100.00;100620.19;5031305;28;20167;-75
2023/04/10 07:38:47;;;;;;;76.38;49.60;;;;;;;9.09;100.00;100620.06;5031367;28;20030;-76
2023/04/10 07:41:12;;;;;;;77.07;52.13;;;;;;;9.23;100.00;100627.56;5028541;28;20057;-76
2023/04/10 07:43:38;;;;;;;69.32;47.85;;;;;;;9.33;100.00;100618.63;5028892;28;20041;-75
2023/04/10 07:46:04;;;;;;;76.65;49.75;;;;;;;9.37;100.00;100606.38;5028749;28;20033;-77
2023/04/10 07:48:29;;;;;;;81.70;51.08;;;;;;;9.45;100.00;100596.63;5028931;28;20447;-78
2023/04/10 07:50:55;;;;;;;76.55;49.72;;;;;;;9.66;100.00;100616.88;5028973;28;20119;-77
2023/04/10 07:53:20;;;;;;;69.82;47.95;;;;;;;9.78;100.00;100612.22;5028690;28;20489;-76
2023/04/10 07:55:48;;;;;;;83.60;54.70;;;;;;;9.80;100.00;100606.06;5029215;28;20038;-77
2023/04/10 07:58:14;;;;;;;75.90;50.25;;;;;;;9.75;100.00;100600.16;5028661;28;20601;-76
2023/04/10 08:00:40;;;;;;;77.70;48.42;;;;;;;9.88;100.00;100621.47;5028803;28;20095;-77
2023/04/10 08:03:06;;;;;;;79.20;49.60;;;;;;;9.97;100.00;100618.59;5028551;28;20037;-77
2023/04/10 08:05:31;;;;;;;77.97;51.67;;;;;;;9.98;100.00;100623.75;5028650;28;20436;-77
2023/04/10 08:07:56;;;;;;;72.72;50.33;;;;;;;9.90;100.00;100599.72;5031908;28;20045;-76
2023/04/10 08:10:22;;;;;;;63.28;45.08;;;;;;;9.94;100.00;100597.84;5032093;28;20089;-77
2023/04/10 08:12:47;;;;;;;68.82;46.20;;;;;;;10.14;100.00;100615.50;5033893;28;20452;-77
2023/04/10 08:15:13;;;;;;;79.10;51.70;;;;;;;10.12;99.54;100609.50;5034282;28;20087;-77
2023/04/10 08:17:38;;;;;;;75.57;55.05;;;;;;;10.10;99.10;100606.09;5034405;28;20092;-77
2023/04/10 08:20:05;;;;;;;74.90;50.58;;;;;;;10.16;99.43;100611.13;5034343;28;20026;-79
2023/04/10 08:22:30;;;;;;;68.82;46.15;;;;;;;10.00;99.31;100608.97;5034431;28;20021;-79
2023/04/10 08:24:55;;;;;;;76.28;51.08;;;;;;;9.83;99.49;100592.97;5034483;28;20030;-79
2023/04/10 08:27:21;;;;;;;73.68;47.70;;;;;;;9.92;99.86;100610.94;5033997;28;20032;-79
2023/04/10 08:29:46;;;;;;;73.70;49.13;;;;;;;9.83;100.00;100592.97;5034556;28;20053;-79
2023/04/10 08:32:11;;;;;;;72.97;49.67;;;;;;;10.09;99.89;100613.03;5034405;28;20421;-78
2023/04/10 08:34:37;;;;;;;79.65;52.85;;;;;;;10.30;99.45;100608.97;5034359;28;20029;-78
2023/04/10 08:37:06;;;;;;;84.57;56.50;;;;;;;10.44;98.07;100605.94;5034162;28;20017;-78
2023/04/10 08:39:34;;;;;;;79.50;53.95;;;;;;;10.49;97.26;100604.06;5034086;28;20034;-76
2023/04/10 08:42:00;;;;;;;79.80;54.45;;;;;;;10.52;97.21;100596.16;5034075;28;20021;-78
2023/04/10 08:44:26;;;;;;;75.93;53.33;;;;;;;10.62;97.16;100594.09;5034040;28;20029;-77
2023/04/10 08:46:51;;;;;;;75.10;48.58;;;;;;;10.85;95.69;100609.88;5033971;28;20029;-77
2023/04/10 08:49:25;;;;;;;67.70;46.72;;;;;;;11.11;95.32;100593.34;5040083;28;20029;-79
2023/04/10 08:51:55;;;;;;;61.75;42.25;;;;;;;11.49;92.69;100606.84;5054147;28;20025;-78
2023/04/10 08:54:26;;;;;;;63.40;45.80;;;;;;;11.67;90.89;100593.16;5053458;28;20025;-77
2023/04/10 08:56:53;;;;;;;63.90;46.70;;;;;;;12.12;90.13;100595.00;5053986;28;20052;-77
2023/04/10 08:59:19;;;;;;;66.28;46.50;;;;;;;12.61;89.46;100607.94;5053550;28;20056;-77
2023/04/10 09:01:45;;;;;;;66.28;47.97;;;;;;;12.71;86.73;100589.19;5053762;28;20079;-78
2023/04/10 09:04:11;;;;;;;56.20;43.05;;;;;;;12.54;85.44;100588.16;5053378;28;20032;-78
2023/04/10 09:06:37;;;;;;;56.20;41.03;;;;;;;12.78;85.63;100592.41;5053638;28;20052;-77
2023/04/10 09:09:04;;;;;;;55.88;40.47;;;;;;;12.83;85.11;100587.84;5053490;28;20032;-78
2023/04/10 09:11:51;;;;;;;55.90;41.47;;;;;;;13.13;86.79;100590.94;5053625;28;20172;-78
2023/04/10 09:14:24;;;;;;;60.25;40.90;;;;;;;13.13;84.89;100571.78;5053336;28;20061;-78
2023/04/10 09:16:51;;;;;;;54.10;38.97;;;;;;;13.05;84.18;100569.50;5052931;28;20017;-78
2023/04/10 09:19:31;;;;;;;56.75;41.47;;;;;;;12.88;83.66;100567.56;5052822;28;20040;-78
2023/04/10 09:21:56;;;;;;;46.70;35.17;;;;;;;12.79;83.99;100578.41;5053250;28;20040;-78
2023/04/10 09:24:26;;;;;;;49.53;35.58;;;;;;;12.81;84.19;100563.53;5053434;28;20029;-78
2023/04/10 09:26:52;;;;;;;46.67;34.85;;;;;;;12.77;84.26;100551.50;5053188;28;20029;-81
2023/04/10 09:29:18;;;;;;;53.70;34.90;;;;;;;12.92;84.85;100563.06;5052728;28;20523;-79
2023/04/10 09:31:44;;;;;;;98.07;65.55;;;;;;;13.26;83.69;100578.22;5052995;28;20017;-80
2023/04/10 09:34:17;;;;;;;63.10;44.67;;;;;;;13.33;83.09;100576.22;5042422;28;20535;-80
2023/04/10 09:36:51;;;;;;;48.28;36.60;;;;;;;13.30;84.30;100543.16;5033192;28;20026;-80
2023/04/10 09:39:17;;;;;;;46.53;33.88;;;;;;;13.22;82.58;100560.94;5032832;28;20029;-81
2023/04/10 09:41:48;;;;;;;46.92;35.92;;;;;;;13.13;83.39;100556.94;5032882;28;20036;-81
2023/04/10 09:44:15;;;;;;;53.88;37.35;;;;;;;13.06;83.87;100552.03;5032805;28;20033;-81
2023/04/10 09:46:41;;;;;;;58.90;40.42;;;;;;;12.89;82.00;100535.31;5032585;28;20029;-81
2023/04/10 09:49:06;;;;;;;52.35;37.30;;;;;;;13.11;82.05;100544.88;5032801;28;20064;-81
2023/04/10 09:51:33;;;;;;;50.78;35.97;;;;;;;13.14;82.29;100527.25;5032690;28;20511;-80
2023/04/10 09:54:00;;;;;;;43.20;33.38;;;;;;;13.40;81.21;100543.59;5032767;28;20048;-79
2023/04/10 09:56:26;;;;;;;44.78;32.40;;;;;;;13.50;81.12;100529.22;5032684;28;20022;-78
2023/04/10 09:58:57;;;;;;;38.00;27.98;;;;;;;13.19;78.83;100529.69;5032598;28;20029;-78
2023/04/10 10:01:27;;;;;;;34.58;25.35;;;;;;;13.06;78.31;100508.44;5032434;28;20025;-78
2023/04/10 10:04:00;;;;;;;37.83;28.40;;;;;;;13.06;78.74;100508.44;5032744;28;20059;-78
2023/04/10 10:06:26;;;;;;;37.33;28.63;;;;;;;13.11;79.21;100516.94;5032419;28;20052;-78
2023/04/10 10:08:52;;;;;;;35.35;26.67;;;;;;;13.04;79.46;100515.50;5032569;28;20033;-79
2023/04/10 10:11:22;;;;;;;38.90;27.15;;;;;;;12.86;81.13;100519.75;5032246;28;20119;-78
2023/04/10 10:13:57;;;;;;;41.53;30.38;;;;;;;12.77;81.39;100487.88;5032318;28;20484;-78
2023/04/10 10:16:45;;;;;;;36.70;28.67;;;;;;;12.84;81.46;100510.25;5032330;28;20049;-78
2023/04/10 10:19:19;;;;;;;44.58;30.73;;;;;;;12.70;82.49;100510.84;5032091;28;20029;-78
2023/04/10 10:21:46;;;;;;;42.72;33.53;;;;;;;12.71;83.11;100502.94;5032294;28;20079;-78
2023/04/10 10:24:12;;;;;;;41.65;31.00;;;;;;;12.64;83.34;100462.31;5032018;28;20084;-78
2023/04/10 10:26:38;;;;;;;39.83;30.50;;;;;;;12.85;83.82;100477.97;5032537;28;20032;-77
2023/04/10 10:29:09;;;;;;;39.90;30.00;;;;;;;13.02;82.93;100496.41;5031478;28;20057;-78
2023/04/10 10:31:36;;;;;;;37.70;29.50;;;;;;;12.99;82.70;100473.84;5032071;28;20428;-78
2023/04/10 10:34:08;;;;;;;38.83;30.20;;;;;;;13.03;82.26;100499.88;5031951;28;20461;-78
2023/04/10 10:36:36;;;;;;;39.25;28.67;;;;;;;12.90;81.98;100496.94;5031712;28;20021;-78
2023/04/10 10:39:33;;;;;;;38.72;28.42;;;;;;;12.70;82.90;100498.63;5032151;28;20029;-77
2023/04/10 10:42:04;;;;;;;42.35;30.48;;;;;;;12.27;83.37;100451.66;5032128;28;20072;-77
2023/04/10 10:44:38;;;;;;;39.13;28.23;;;;;;;12.34;83.90;100472.22;5032027;28;20117;-78
2023/04/10 10:47:12;;;;;;;37.67;26.42;;;;;;;12.37;83.99;100468.66;5032061;28;20025;-82
2023/04/10 10:49:55;;;;;;;35.30;27.83;;;;;;;12.53;83.54;100484.56;5031774;28;20026;-78
2023/04/10 10:53:05;;;;;;;34.13;27.50;;;;;;;12.68;83.52;100486.50;5031613;28;20029;-79
2023/04/10 10:55:31;;;;;;;33.70;25.42;;;;;;;12.96;83.36;100467.91;5049054;28;20685;-82
2023/04/10 10:58:00;;;;;;;38.10;27.75;;;;;;;12.96;82.26;100447.81;5051813;28;20041;-82
2023/04/10 11:00:46;;;;;;;34.50;27.85;;;;;;;13.22;82.04;100467.63;5065779;28;20040;-81
2023/04/10 11:03:14;;;;;;;33.17;26.85;;;;;;;13.38;81.48;100474.81;5049038;28;20039;-82
2023/04/10 11:05:57;;;;;;;38.13;29.27;;;;;;;13.33;80.19;100472.41;5048743;28;20041;-82
2023/04/10 11:08:31;;;;;;;38.40;28.58;;;;;;;13.55;80.10;100466.19;5048778;28;20028;-82